createdAt,value
2022-11-18T00:01:14.791Z,11.40
2022-11-18T00:03:41.929Z,11.29
2022-11-18T00:06:11.957Z,11.47
2022-11-18T00:08:38.500Z,11.45
2022-11-18T00:11:10.193Z,11.59
2022-11-18T00:13:58.084Z,11.26
2022-11-18T00:16:24.923Z,11.42
2022-11-18T00:18:51.576Z,11.37
2022-11-18T00:21:18.108Z,11.40
2022-11-18T00:23:44.672Z,11.78
2022-11-18T00:26:14.666Z,11.37
2022-11-18T00:28:42.013Z,11.75
2022-11-18T00:31:13.864Z,11.43
2022-11-18T00:33:41.069Z,11.44
2022-11-18T00:36:10.659Z,11.65
2022-11-18T00:38:37.743Z,11.72
2022-11-18T00:41:11.765Z,11.64
2022-11-18T00:43:39.087Z,11.45
2022-11-18T00:46:07.813Z,11.16
2022-11-18T00:48:35.008Z,11.76
2022-11-18T00:51:16.698Z,11.39
2022-11-18T00:53:43.536Z,11.52
2022-11-18T00:56:10.821Z,11.50
2022-11-18T00:58:37.762Z,11.32
2022-11-18T01:01:05.088Z,11.53
2022-11-18T01:03:31.878Z,11.45
2022-11-18T01:05:58.421Z,11.52
2022-11-18T01:08:25.930Z,11.50
2022-11-18T01:10:52.724Z,11.68
2022-11-18T01:13:20.706Z,11.71
2022-11-18T01:15:50.311Z,11.68
2022-11-18T01:18:18.851Z,11.64
2022-11-18T01:20:46.168Z,11.75
2022-11-18T01:23:13.281Z,11.65
2022-11-18T01:25:41.752Z,11.74
2022-11-18T01:28:08.351Z,11.60
2022-11-18T01:30:36.737Z,12.00
2022-11-18T01:33:04.164Z,11.85
2022-11-18T01:35:41.488Z,11.99
2022-11-18T01:38:10.326Z,12.08
2022-11-18T01:40:37.218Z,11.99
2022-11-18T01:43:12.319Z,11.71
2022-11-18T01:45:40.602Z,11.82
2022-11-18T01:48:09.618Z,12.07
2022-11-18T01:50:41.515Z,12.09
2022-11-18T01:53:14.928Z,12.27
2022-11-18T01:55:46.202Z,12.23
2022-11-18T01:58:18.806Z,11.96
2022-11-18T02:00:45.375Z,12.56
2022-11-18T02:03:12.250Z,12.69
2022-11-18T02:05:40.513Z,12.63
2022-11-18T02:08:07.722Z,12.69
2022-11-18T02:10:34.258Z,12.25
2022-11-18T02:13:01.673Z,12.23
2022-11-18T02:16:06.367Z,12.25
2022-11-18T02:18:41.701Z,12.09
2022-11-18T02:21:35.381Z,12.13
2022-11-18T02:24:11.572Z,12.31
2022-11-18T02:26:54.669Z,11.92
2022-11-18T02:29:26.514Z,11.89
2022-11-18T02:32:00.477Z,11.94
2022-11-18T02:34:48.623Z,11.92
2022-11-18T02:37:50.286Z,12.26
2022-11-18T02:40:23.277Z,12.55
2022-11-18T02:43:00.067Z,12.62
2022-11-18T02:45:28.074Z,12.31
2022-11-18T02:47:57.465Z,11.90
2022-11-18T02:50:27.736Z,12.36
2022-11-18T02:52:58.650Z,12.05
2022-11-18T02:55:28.991Z,12.05
2022-11-18T02:57:57.356Z,12.18
2022-11-18T03:00:23.934Z,12.39
2022-11-18T03:02:50.767Z,12.26
2022-11-18T03:05:37.662Z,12.33
2022-11-18T03:08:11.059Z,12.52
2022-11-18T03:10:47.370Z,12.45
2022-11-18T03:13:38.571Z,12.22
2022-11-18T03:16:11.347Z,12.25
2022-11-18T03:18:53.418Z,12.24
2022-11-18T03:21:43.690Z,12.33
2022-11-18T03:24:20.619Z,12.12
2022-11-18T03:26:54.143Z,12.17
2022-11-18T03:29:34.313Z,12.10
2022-11-18T03:32:06.556Z,12.21
2022-11-18T03:35:07.677Z,12.38
2022-11-18T03:37:35.761Z,12.07
2022-11-18T03:40:11.669Z,12.38
2022-11-18T03:42:46.262Z,12.74
2022-11-18T03:45:19.688Z,11.91
2022-11-18T03:47:58.995Z,11.97
2022-11-18T03:50:33.580Z,11.79
2022-11-18T03:53:01.502Z,11.92
2022-11-18T03:55:33.719Z,11.99
2022-11-18T03:58:13.213Z,12.28
2022-11-18T04:00:44.704Z,12.09
2022-11-18T04:03:11.624Z,12.07
2022-11-18T04:05:41.509Z,12.20
2022-11-18T04:08:15.616Z,12.27
2022-11-18T04:10:47.743Z,12.16
2022-11-18T04:13:27.336Z,12.46
2022-11-18T04:15:54.514Z,12.49
2022-11-18T04:18:21.773Z,12.44
2022-11-18T04:20:48.236Z,12.30
2022-11-18T04:23:14.843Z,12.45
2022-11-18T04:25:41.459Z,12.48
2022-11-18T04:28:08.092Z,12.30
2022-11-18T04:30:34.990Z,12.45
2022-11-18T04:33:01.555Z,12.22
2022-11-18T04:35:28.518Z,12.22
2022-11-18T04:37:55.066Z,12.33
2022-11-18T04:40:21.655Z,12.23
2022-11-18T04:42:48.211Z,12.05
2022-11-18T04:45:14.822Z,12.22
2022-11-18T04:47:41.546Z,12.11
2022-11-18T04:50:08.518Z,11.88
2022-11-18T04:52:35.119Z,12.14
2022-11-18T04:55:01.688Z,12.08
2022-11-18T04:57:28.211Z,12.15
2022-11-18T04:59:54.763Z,12.23
2022-11-18T05:02:21.239Z,12.29
2022-11-18T05:04:47.963Z,12.22
2022-11-18T05:07:15.760Z,12.56
2022-11-18T05:09:42.682Z,12.10
2022-11-18T05:12:33.172Z,11.83
2022-11-18T05:14:59.856Z,11.87
2022-11-18T05:17:26.648Z,11.78
2022-11-18T05:19:53.322Z,11.94
2022-11-18T05:22:19.917Z,11.69
2022-11-18T05:24:46.651Z,11.76
2022-11-18T05:27:14.409Z,11.81
2022-11-18T05:29:40.959Z,12.05
2022-11-18T05:32:07.484Z,11.76
2022-11-18T05:34:33.995Z,11.68
2022-11-18T05:37:00.619Z,11.74
2022-11-18T05:39:27.089Z,11.53
2022-11-18T05:42:12.001Z,11.51
2022-11-18T05:44:38.478Z,11.53
2022-11-18T05:47:05.151Z,12.00
2022-11-18T05:49:31.687Z,11.88
2022-11-18T05:51:58.253Z,11.71
2022-11-18T05:54:25.539Z,11.64
2022-11-18T05:56:52.176Z,12.07
2022-11-18T05:59:18.946Z,12.17
2022-11-18T06:01:57.045Z,12.16
2022-11-18T06:04:32.994Z,12.09
2022-11-18T06:07:05.969Z,12.24
2022-11-18T06:09:36.084Z,11.95
2022-11-18T06:12:04.971Z,11.78
2022-11-18T06:14:47.198Z,11.78
2022-11-18T06:17:22.698Z,11.76
2022-11-18T06:19:49.510Z,11.72
2022-11-18T06:22:16.163Z,11.96
2022-11-18T06:24:43.425Z,11.74
2022-11-18T06:27:10.388Z,11.78
2022-11-18T06:29:36.952Z,11.79
2022-11-18T06:32:03.616Z,11.82
2022-11-18T06:34:30.106Z,11.71
2022-11-18T06:36:56.581Z,12.02
2022-11-18T06:39:23.115Z,12.25
2022-11-18T06:41:52.808Z,11.74
2022-11-18T06:44:19.441Z,12.01
2022-11-18T06:46:58.197Z,11.54
2022-11-18T06:49:27.018Z,11.57
2022-11-18T06:51:54.310Z,12.05
2022-11-18T06:54:21.030Z,11.63
2022-11-18T06:56:47.625Z,11.59
2022-11-18T06:59:14.544Z,11.81
2022-11-18T07:01:41.899Z,11.79
2022-11-18T07:04:08.930Z,11.89
2022-11-18T07:06:36.607Z,11.72
2022-11-18T07:09:06.119Z,11.95
2022-11-18T07:11:33.065Z,11.92
2022-11-18T07:14:00.261Z,12.28
2022-11-18T07:16:27.628Z,11.87
2022-11-18T07:18:55.582Z,12.08
2022-11-18T07:21:29.372Z,11.81
2022-11-18T07:23:56.989Z,11.37
2022-11-18T07:26:24.768Z,11.75
2022-11-18T07:28:51.505Z,12.30
2022-11-18T07:31:20.305Z,12.36
2022-11-18T07:33:48.253Z,12.37
2022-11-18T07:36:18.113Z,12.08
2022-11-18T07:38:45.134Z,11.93
2022-11-18T07:41:15.983Z,11.76
2022-11-18T07:43:43.285Z,12.09
2022-11-18T07:46:13.802Z,12.27
2022-11-18T07:48:41.078Z,12.39
2022-11-18T07:51:08.086Z,12.34
2022-11-18T07:53:35.481Z,12.53
2022-11-18T07:56:02.700Z,11.94
2022-11-18T07:58:29.313Z,12.22
2022-11-18T08:00:58.316Z,12.21
2022-11-18T08:03:28.928Z,12.49
2022-11-18T08:05:59.755Z,12.37
2022-11-18T08:08:26.574Z,11.96
2022-11-18T08:11:00.874Z,11.66
2022-11-18T08:13:28.646Z,12.17
2022-11-18T08:15:56.031Z,12.09
2022-11-18T08:18:22.961Z,12.10
2022-11-18T08:20:49.536Z,12.06
2022-11-18T08:23:16.790Z,12.00
2022-11-18T08:25:45.131Z,12.19
2022-11-18T08:28:12.958Z,12.24
2022-11-18T08:30:39.900Z,12.51
2022-11-18T08:33:06.581Z,12.52
2022-11-18T08:35:33.517Z,12.16
2022-11-18T08:38:00.417Z,12.16
2022-11-18T08:40:27.064Z,11.91
2022-11-18T08:42:53.643Z,12.33
2022-11-18T08:45:20.200Z,12.54
2022-11-18T08:47:46.746Z,12.57
2022-11-18T08:50:13.351Z,12.56
2022-11-18T08:52:39.919Z,12.48
2022-11-18T08:55:06.789Z,12.41
2022-11-18T08:57:33.305Z,12.46
2022-11-18T08:59:59.998Z,12.48
2022-11-18T09:02:26.642Z,12.41
2022-11-18T09:04:53.554Z,12.46
2022-11-18T09:07:21.458Z,12.39
2022-11-18T09:09:48.620Z,12.38
2022-11-18T09:12:17.371Z,12.19
2022-11-18T09:17:31.499Z,12.45
2022-11-18T09:19:58.095Z,12.31
2022-11-18T09:22:24.684Z,11.98
2022-11-18T09:24:51.528Z,12.18
2022-11-18T09:27:18.311Z,12.41
2022-11-18T09:29:45.486Z,12.34
2022-11-18T09:32:12.166Z,12.14
2022-11-18T09:34:38.692Z,11.97
2022-11-18T09:37:06.505Z,11.99
2022-11-18T09:39:37.213Z,12.00
2022-11-18T09:42:25.524Z,11.72
2022-11-18T09:45:26.293Z,12.02
2022-11-18T09:47:57.587Z,11.93
2022-11-18T09:50:48.408Z,11.79
2022-11-18T09:53:22.565Z,12.00
2022-11-18T09:55:50.357Z,12.06
2022-11-18T09:58:22.572Z,12.02
2022-11-18T10:00:49.132Z,12.11
2022-11-18T10:03:18.695Z,12.01
2022-11-18T10:06:03.846Z,12.30
2022-11-18T10:08:44.227Z,12.11
2022-11-18T10:11:23.529Z,11.74
2022-11-18T10:13:56.792Z,12.32
2022-11-18T10:16:52.739Z,12.23
2022-11-18T10:19:23.352Z,12.64
2022-11-18T10:22:23.845Z,12.50
2022-11-18T10:24:56.779Z,12.67
2022-11-18T10:27:26.869Z,12.37
2022-11-18T10:29:57.002Z,12.59
2022-11-18T10:32:24.012Z,12.60
2022-11-18T10:34:56.454Z,12.49
2022-11-18T10:38:06.707Z,12.56
2022-11-18T10:40:29.380Z,12.56
2022-11-18T10:42:56.381Z,12.55
2022-11-18T10:45:22.852Z,12.61
2022-11-18T10:48:09.098Z,12.29
2022-11-18T10:50:41.424Z,12.66
2022-11-18T10:53:31.221Z,12.85
2022-11-18T10:56:02.995Z,12.49
2022-11-18T10:58:31.182Z,12.53
2022-11-18T11:01:20.779Z,12.17
2022-11-18T11:04:20.152Z,12.28
2022-11-18T11:06:46.822Z,12.32
2022-11-18T11:09:13.269Z,12.59
2022-11-18T11:12:11.765Z,12.37
2022-11-18T11:14:54.369Z,12.52
2022-11-18T11:18:10.336Z,12.93
2022-11-18T11:20:36.980Z,13.41
2022-11-18T11:23:10.534Z,13.20
2022-11-18T11:29:00.685Z,13.19
2022-11-18T11:31:42.351Z,13.17
2022-11-18T11:34:28.377Z,13.40
2022-11-18T11:37:04.285Z,13.18
2022-11-18T11:39:33.832Z,13.30
2022-11-18T11:42:08.996Z,13.40
2022-11-18T11:44:44.741Z,13.48
2022-11-18T11:47:49.845Z,13.75
2022-11-18T11:50:26.613Z,13.44
2022-11-18T11:53:20.422Z,13.68
2022-11-18T11:56:03.293Z,13.89
2022-11-18T11:58:50.789Z,13.39
2022-11-18T12:01:27.063Z,13.05
2022-11-18T12:04:08.098Z,13.47
2022-11-18T12:06:35.503Z,13.26
2022-11-18T12:09:27.007Z,13.20
2022-11-18T12:12:05.431Z,13.51
2022-11-18T12:14:46.012Z,13.65
2022-11-18T12:17:20.252Z,14.10
2022-11-18T12:19:46.808Z,13.89
2022-11-18T12:22:13.908Z,14.00
2022-11-18T12:24:42.478Z,14.40
2022-11-18T12:27:24.067Z,14.63
2022-11-18T12:29:50.719Z,15.92
2022-11-18T12:32:43.079Z,15.86
2022-11-18T12:35:12.710Z,14.77
2022-11-18T12:37:58.866Z,15.72
2022-11-18T12:40:36.131Z,15.30
2022-11-18T12:43:23.112Z,15.52
2022-11-18T12:45:53.315Z,15.69
2022-11-18T12:48:40.519Z,14.80
2022-11-18T12:51:16.132Z,14.73
2022-11-18T12:53:47.765Z,15.07
2022-11-18T12:56:17.011Z,15.95
2022-11-18T12:59:02.048Z,16.64
2022-11-18T13:01:31.760Z,15.49
2022-11-18T13:04:20.283Z,14.38
2022-11-18T13:06:47.425Z,14.47
2022-11-18T13:09:21.425Z,13.97
2022-11-18T13:11:54.051Z,13.64
2022-11-18T13:14:43.748Z,13.39
2022-11-18T13:17:48.709Z,13.29
2022-11-18T13:20:37.249Z,13.07
2022-11-18T13:23:28.347Z,12.98
2022-11-18T13:26:03.884Z,13.46
2022-11-18T13:28:40.300Z,13.68
2022-11-18T13:31:25.041Z,13.71
2022-11-18T13:33:52.656Z,13.62
2022-11-18T13:36:22.035Z,13.85
2022-11-18T13:39:00.211Z,14.29
2022-11-18T13:41:34.978Z,14.49
2022-11-18T13:44:11.054Z,14.06
2022-11-18T13:46:39.622Z,14.15
2022-11-18T13:49:06.395Z,13.68
2022-11-18T13:51:33.219Z,14.19
2022-11-18T13:53:59.924Z,13.68
2022-11-18T13:56:34.436Z,13.79
2022-11-18T13:59:16.899Z,13.99
2022-11-18T14:01:46.060Z,14.29
2022-11-18T14:04:31.462Z,14.04
2022-11-18T14:07:26.051Z,14.55
2022-11-18T14:10:00.415Z,14.74
2022-11-18T14:12:32.680Z,14.63
2022-11-18T14:15:42.085Z,14.56
2022-11-18T14:18:26.433Z,13.94
2022-11-18T14:20:54.747Z,14.33
2022-11-18T14:23:27.628Z,14.12
2022-11-18T14:25:54.825Z,14.02
2022-11-18T14:28:28.739Z,13.40
2022-11-18T14:30:55.215Z,13.68
2022-11-18T14:33:24.212Z,13.93
2022-11-18T14:36:00.120Z,13.56
2022-11-18T14:38:43.721Z,14.04
2022-11-18T14:41:43.939Z,13.78
2022-11-18T14:44:13.201Z,13.60
2022-11-18T14:46:41.325Z,13.61
2022-11-18T14:49:17.127Z,13.17
2022-11-18T14:51:45.166Z,12.86
2022-11-18T14:54:14.294Z,12.63
2022-11-18T14:56:42.384Z,12.64
2022-11-18T14:59:16.364Z,12.45
2022-11-18T15:01:43.880Z,12.27
2022-11-18T15:04:11.045Z,12.15
2022-11-18T15:06:38.990Z,12.19
2022-11-18T15:09:07.861Z,12.11
2022-11-18T15:11:35.085Z,12.15
2022-11-18T15:14:02.572Z,12.17
2022-11-18T15:16:31.009Z,12.06
2022-11-18T15:19:00.821Z,12.16
2022-11-18T15:21:27.888Z,12.14
2022-11-18T15:23:54.447Z,11.93
2022-11-18T15:26:38.942Z,11.91
2022-11-18T15:29:05.591Z,11.99
2022-11-18T15:31:32.486Z,12.01
2022-11-18T15:34:03.632Z,11.97
2022-11-18T15:36:31.830Z,11.99
2022-11-18T15:38:58.309Z,12.08
2022-11-18T15:41:27.133Z,12.34
2022-11-18T15:43:55.033Z,11.93
2022-11-18T15:46:23.510Z,12.08
2022-11-18T15:48:58.141Z,11.79
2022-11-18T15:51:26.455Z,11.53
2022-11-18T15:53:53.595Z,11.33
2022-11-18T15:56:23.261Z,11.26
2022-11-18T15:58:56.709Z,11.41
2022-11-18T16:01:24.466Z,11.10
2022-11-18T16:03:51.290Z,11.14
2022-11-18T16:06:18.284Z,10.91
2022-11-18T16:08:44.838Z,10.84
2022-11-18T16:11:32.462Z,10.86
2022-11-18T16:14:05.646Z,10.61
2022-11-18T16:16:33.242Z,10.71
2022-11-18T16:19:02.068Z,10.66
2022-11-18T16:21:29.857Z,10.45
2022-11-18T16:23:58.058Z,10.45
2022-11-18T16:26:26.004Z,10.50
2022-11-18T16:28:53.598Z,10.58
2022-11-18T16:31:39.542Z,11.04
2022-11-18T16:34:14.343Z,10.83
2022-11-18T16:36:43.092Z,10.64
2022-11-18T16:39:23.525Z,10.27
2022-11-18T16:41:50.909Z,10.57
2022-11-18T16:44:17.862Z,10.48
2022-11-18T16:46:49.816Z,10.39
2022-11-18T16:49:18.976Z,10.33
2022-11-18T16:51:48.118Z,10.40
2022-11-18T16:54:24.616Z,10.32
2022-11-18T16:56:52.477Z,10.24
2022-11-18T16:59:39.283Z,10.24
2022-11-18T17:02:06.315Z,10.16
2022-11-18T17:04:35.292Z,10.27
2022-11-18T17:07:02.164Z,10.43
2022-11-18T17:09:28.842Z,10.27
2022-11-18T17:11:56.480Z,10.35
2022-11-18T17:14:23.557Z,10.31
2022-11-18T17:16:51.302Z,10.49
2022-11-18T17:19:22.961Z,10.38
2022-11-18T17:21:51.528Z,10.33
2022-11-18T17:24:20.980Z,10.45
2022-11-18T17:26:48.555Z,10.63
2022-11-18T17:29:15.299Z,10.69
2022-11-18T17:31:42.701Z,10.71
2022-11-18T17:34:11.835Z,10.74
2022-11-18T17:36:38.415Z,10.79
2022-11-18T17:39:04.985Z,10.65
2022-11-18T17:41:50.163Z,10.70
2022-11-18T17:44:17.784Z,10.53
2022-11-18T17:46:46.951Z,10.60
2022-11-18T17:49:23.553Z,10.57
2022-11-18T17:51:53.507Z,10.86
2022-11-18T17:54:21.305Z,11.00
2022-11-18T17:56:48.706Z,11.05
2022-11-18T17:59:17.305Z,11.15
2022-11-18T18:01:45.383Z,11.24
2022-11-18T18:04:14.531Z,11.21
2022-11-18T18:06:41.449Z,11.32
2022-11-18T18:09:08.406Z,11.39
2022-11-18T18:11:35.015Z,11.36
2022-11-18T18:14:13.734Z,11.25
2022-11-18T18:16:42.170Z,11.40
2022-11-18T18:19:11.264Z,11.34
2022-11-18T18:21:37.928Z,11.37
2022-11-18T18:24:05.055Z,11.51
2022-11-18T18:26:32.183Z,11.55
2022-11-18T18:29:00.358Z,11.48
2022-11-18T18:31:27.428Z,11.59
2022-11-18T18:33:53.936Z,11.27
2022-11-18T18:36:21.046Z,11.08
2022-11-18T18:38:47.707Z,10.59
2022-11-18T18:41:20.013Z,10.57
2022-11-18T18:43:47.307Z,10.39
2022-11-18T18:46:28.688Z,10.49
2022-11-18T18:48:56.369Z,10.87
2022-11-18T18:51:23.291Z,10.53
2022-11-18T18:53:49.828Z,10.28
2022-11-18T18:56:16.386Z,10.44
2022-11-18T18:58:42.878Z,10.36
2022-11-18T19:01:12.529Z,10.29
2022-11-18T19:03:40.101Z,10.25
2022-11-18T19:09:14.125Z,10.43
2022-11-18T19:11:59.515Z,10.61
2022-11-18T19:14:26.589Z,10.64
2022-11-18T19:16:53.575Z,10.73
2022-11-18T19:19:41.243Z,10.73
2022-11-18T19:22:08.204Z,10.77
2022-11-18T19:24:49.123Z,10.81
2022-11-18T19:27:17.482Z,10.76
2022-11-18T19:29:44.189Z,10.91
2022-11-18T19:32:10.921Z,10.89
2022-11-18T19:34:37.476Z,10.90
2022-11-18T19:37:04.102Z,10.52
2022-11-18T19:39:30.636Z,10.70
2022-11-18T19:41:57.249Z,10.54
2022-11-18T19:44:23.859Z,10.50
2022-11-18T19:46:50.361Z,10.55
2022-11-18T19:49:17.309Z,10.59
2022-11-18T19:51:44.066Z,10.63
2022-11-18T19:54:10.605Z,10.89
2022-11-18T19:56:37.170Z,10.84
2022-11-18T19:59:03.775Z,10.78
2022-11-18T20:01:31.647Z,10.81
2022-11-18T20:03:59.986Z,11.01
2022-11-18T20:06:27.536Z,10.90
2022-11-18T20:08:55.683Z,10.90
2022-11-18T20:11:23.445Z,10.92
2022-11-18T20:13:50.632Z,10.74
2022-11-18T20:16:22.525Z,10.88
2022-11-18T20:18:54.432Z,10.99
2022-11-18T20:21:21.839Z,11.05
2022-11-18T20:23:57.080Z,10.92
2022-11-18T20:26:26.861Z,10.97
2022-11-18T20:28:57.524Z,10.65
2022-11-18T20:31:24.694Z,10.80
2022-11-18T20:33:53.276Z,10.76
2022-11-18T20:36:21.338Z,10.64
2022-11-18T20:38:55.442Z,10.92
2022-11-18T20:41:23.141Z,10.95
2022-11-18T20:43:50.159Z,10.66
2022-11-18T20:46:20.788Z,10.43
2022-11-18T20:48:48.841Z,10.41
2022-11-18T20:51:20.513Z,10.50
2022-11-18T20:53:47.946Z,10.60
2022-11-18T20:56:16.609Z,10.43
2022-11-18T20:58:44.468Z,10.28
2022-11-18T21:01:15.595Z,10.37
2022-11-18T21:03:43.418Z,10.28
2022-11-18T21:06:14.162Z,10.47
2022-11-18T21:08:41.671Z,10.49
2022-11-18T21:11:10.592Z,10.58
2022-11-18T21:13:55.783Z,10.45
2022-11-18T21:16:22.589Z,10.42
2022-11-18T21:18:49.230Z,10.37
2022-11-18T21:21:34.376Z,10.58
2022-11-18T21:24:02.474Z,10.78
2022-11-18T21:26:31.160Z,10.76
2022-11-18T21:29:00.423Z,10.89
2022-11-18T21:31:28.276Z,10.68
2022-11-18T21:33:55.177Z,10.62
2022-11-18T21:36:23.372Z,10.84
2022-11-18T21:38:50.167Z,10.84
2022-11-18T21:41:17.338Z,10.49
2022-11-18T21:44:04.431Z,10.55
2022-11-18T21:46:31.060Z,10.64
2022-11-18T21:49:00.272Z,10.55
2022-11-18T21:51:27.576Z,10.66
2022-11-18T21:53:54.578Z,10.55
2022-11-18T21:56:23.643Z,10.41
2022-11-18T21:58:50.893Z,10.37
2022-11-18T22:01:19.876Z,10.37
2022-11-18T22:04:01.059Z,10.17
2022-11-18T22:06:33.445Z,10.42
2022-11-18T22:09:01.099Z,10.20
2022-11-18T22:11:28.347Z,10.02
2022-11-18T22:13:55.370Z,10.00
2022-11-18T22:16:23.766Z,9.71
2022-11-18T22:18:57.264Z,9.80
2022-11-18T22:21:26.383Z,10.02
2022-11-18T22:23:56.872Z,9.75
2022-11-18T22:26:23.524Z,10.08
2022-11-18T22:28:53.592Z,9.78
2022-11-18T22:31:22.663Z,9.94
2022-11-18T22:33:50.964Z,9.95
2022-11-18T22:36:19.622Z,9.88
2022-11-18T22:38:46.595Z,10.06
2022-11-18T22:41:34.526Z,9.54
2022-11-18T22:44:07.103Z,9.03
2022-11-18T22:46:35.464Z,9.07
2022-11-18T22:49:02.156Z,8.69
2022-11-18T22:51:29.063Z,8.59
2022-11-18T22:54:15.985Z,8.83
2022-11-18T22:56:42.175Z,8.81
2022-11-18T22:59:11.223Z,8.47
2022-11-18T23:01:37.797Z,8.70
2022-11-18T23:04:04.531Z,8.61
2022-11-18T23:06:31.098Z,8.43
2022-11-18T23:08:57.590Z,8.70
2022-11-18T23:11:42.793Z,8.63
2022-11-18T23:14:10.216Z,8.39
2022-11-18T23:16:39.269Z,8.21
2022-11-18T23:19:08.126Z,7.98
2022-11-18T23:21:35.457Z,8.15
2022-11-18T23:24:02.307Z,8.03
2022-11-18T23:26:28.938Z,7.79
2022-11-18T23:28:55.744Z,7.73
2022-11-18T23:31:24.199Z,7.94
2022-11-18T23:33:51.225Z,8.00
2022-11-18T23:36:19.758Z,8.04
2022-11-18T23:38:47.118Z,8.04
2022-11-18T23:41:15.418Z,7.74
2022-11-18T23:43:42.243Z,7.66
2022-11-18T23:46:09.749Z,8.14
2022-11-18T23:48:38.332Z,7.73
2022-11-18T23:51:06.335Z,7.84
2022-11-18T23:53:34.061Z,7.71
2022-11-18T23:56:02.202Z,7.70
2022-11-18T23:58:29.037Z,7.89
